Latest Weather Observations for Low Isles

IDQ60801

Issued at 9:02 am EST Monday 24 April 2017 (issued every 30 minutes, with the page automatically refreshed every 10 minutes)

About weather observations | Map of weather stations | Latest weather observations for QLD | Other Formats
Station Details ID: 031037 Name: LOW ISLES LIGHTHOUSE Lat: -16.38 Lon: 145.56 Height: 2.9 m
Data from the previous 72 hours. | See also: Recent months at Low Isles
Date/Time
EST
Temp
°C
App
Temp
°C
Dew
Point
°C
Rel
Hum
%
Delta-T
°C
Wind Press
QNH
hPa
Press
MSL
hPa
Rain since
9am
mm
Dir  Spd
km/h
Gust
km/h
Spd
kts
Gust
kts
24/08:30am 26.0 24.7 22.1 79 2.6 ESE 32 37 17 20 1015.4 - 0.2
24/08:00am 25.0 24.5 22.1 84 1.9 SSE 28 33 15 18 1015.4 - 0.2
24/07:30am 25.5 25.0 22.2 82 2.2 SSE 28 32 15 17 1015.1 - 0.2
24/07:00am 25.7 26.2 22.6 83 2.1 SSE 24 28 13 15 1014.7 - 0.2
24/06:30am 25.5 25.9 22.4 83 2.1 SSE 24 28 13 15 1014.3 - 0.2
24/06:00am 25.5 25.3 22.0 81 2.3 SSE 26 32 14 17 1014.0 1013.9 0.2
24/05:30am 25.4 24.3 21.7 80 2.5 SSE 30 33 16 18 1013.9 - 0.2
24/05:00am 25.5 24.7 21.6 79 2.6 SSE 28 32 15 17 1013.7 - 0.2
24/04:30am 25.4 24.6 21.7 80 2.5 SSE 28 32 15 17 1013.8 - 0.2
24/04:00am 25.3 24.2 21.8 81 2.3 SSE 30 33 16 18 1013.8 - 0.2
24/03:30am 25.4 23.7 21.7 80 2.5 SSE 33 37 18 20 1013.7 - 0.2
24/03:00am 25.3 23.9 22.0 82 2.2 SSE 32 37 17 20 1013.8 1013.7 0.2
24/02:30am 25.2 24.1 21.7 81 2.3 SSE 30 35 16 19 1013.9 - 0.2
24/02:00am 25.1 23.9 21.6 81 2.3 SSE 30 32 16 17 1014.1 - 0.2
24/01:30am 25.2 24.1 21.7 81 2.3 SSE 30 35 16 19 1014.5 - 0.2
24/01:00am 25.2 24.0 21.5 80 2.5 SSE 30 35 16 19 1015.0 - 0.2
24/12:30am 25.3 24.2 21.8 81 2.3 SSE 30 35 16 19 1015.4 - 0.2
24/12:00am 25.5 24.6 22.2 82 2.2 SSE 30 35 16 19 1015.7 1015.6 0.2
 
Date/Time
EST
Temp
°C
App
Temp
°C
Dew
Point
°C
Rel
Hum
%
Delta-T
°C
Wind Press
QNH
hPa
Press
MSL
hPa
Rain since
9am
mm
Dir  Spd
km/h
Gust
km/h
Spd
kts
Gust
kts
23/11:30pm 25.5 23.9 21.8 80 2.5 SSE 33 37 18 20 1016.0 - 0.2
23/11:00pm 25.5 23.9 21.6 79 2.6 SE 32 37 17 20 1016.1 - 0.2
23/10:30pm 25.7 24.3 22.2 81 2.3 SSE 33 41 18 22 1016.1 - 0.2
23/10:00pm 25.9 24.6 22.4 81 2.4 SSE 33 39 18 21 1016.3 - 0.2
23/09:30pm 25.9 24.6 22.4 81 2.4 SSE 33 37 18 20 1016.5 - 0.2
23/09:00pm 26.1 24.4 22.4 80 2.5 SSE 35 41 19 22 1016.3 1016.2 0.2
23/08:30pm 26.2 23.0 21.8 77 2.9 SSE 41 46 22 25 1016.1 - 0.2
23/08:00pm 26.2 23.2 22.1 78 2.7 SSE 41 46 22 25 1015.7 - 0.2
23/07:30pm 26.3 23.9 22.6 80 2.5 SSE 39 44 21 24 1015.2 - 0.2
23/07:00pm 26.3 23.7 22.2 78 2.8 SSE 39 44 21 24 1014.7 - 0.2
23/06:30pm 26.4 25.1 22.5 79 2.6 SE 33 39 18 21 1014.5 - 0.2
23/06:00pm 26.5 24.5 21.9 76 3.1 SE 35 41 19 22 1014.1 1014.0 0.2
23/05:30pm 26.6 24.2 21.8 75 3.2 SE 37 43 20 23 1013.8 - 0.2
23/05:00pm 26.8 25.2 21.8 74 3.3 SE 33 41 18 22 1013.6 - 0.2
23/04:30pm 27.0 25.5 21.7 73 3.5 SE 32 35 17 19 1013.3 - 0.2
23/04:00pm 27.2 26.0 21.5 71 3.8 SE 30 35 16 19 1013.3 - 0.2
23/03:30pm 27.2 25.1 21.0 69 4.1 SSE 33 39 18 21 1013.5 - 0.2
23/03:00pm 27.8 26.5 21.3 67 4.3 SE 30 35 16 19 1013.7 1013.6 0.2
23/02:30pm 27.9 26.5 21.2 67 4.5 SE 30 35 16 19 1014.0 - 0.2
23/02:00pm 28.9 28.1 21.7 65 4.8 SE 28 35 15 19 1014.3 - 0.2
23/01:30pm 29.1 27.7 20.5 59 5.7 SE 28 35 15 19 1014.6 - 0.2
23/01:00pm 28.8 27.6 21.6 65 4.8 SE 30 33 16 18 1014.8 - 0.2
23/12:30pm 28.8 27.3 21.0 62 5.2 SE 30 33 16 18 1015.2 - 0.2
23/12:00pm 28.6 27.0 20.1 60 5.6 SE 28 35 15 19 1015.8 1015.7 0.2
23/11:30am 28.4 26.6 20.4 62 5.3 SE 30 35 16 19 1016.1 - 0.2
23/11:00am 27.9 25.5 19.9 61 5.2 ESE 32 39 17 21 1016.3 - 0.2
23/10:30am 27.3 25.0 20.6 67 4.4 ESE 33 41 18 22 1016.3 - 0.0
23/10:00am 27.2 25.1 21.0 69 4.1 SE 33 43 18 23 1016.1 - 0.0
23/09:30am 26.1 23.9 21.5 76 3.1 SE 35 43 19 23 1015.9 - 0.0
23/09:00am 25.5 24.0 21.8 80 2.5 S 32 35 17 19 1015.7 1015.6 13.0
23/08:30am 25.6 24.3 22.1 81 2.3 S 32 35 17 19 1015.4 - 13.0
23/08:00am 25.5 24.5 22.0 81 2.3 SSE 30 33 16 18 1015.2 - 13.0
23/07:30am 25.5 24.1 22.0 81 2.3 SSE 32 35 17 19 1014.9 - 13.0
23/07:00am 25.4 24.6 22.3 83 2.1 S 30 33 16 18 1014.5 - 13.0
23/06:30am 25.6 23.6 21.1 76 3.0 SE 33 41 18 22 1014.1 - 13.0
23/06:00am 25.4 24.0 22.3 83 2.1 SSE 33 37 18 20 1013.7 1013.6 13.0
23/05:30am 25.0 23.7 22.1 84 1.9 SSE 32 37 17 20 1013.5 - 13.0
23/05:00am 25.1 23.4 22.4 85 1.8 SSE 35 43 19 23 1013.4 - 13.0
23/04:30am 25.0 23.5 22.1 84 1.9 SSE 33 37 18 20 1013.3 - 13.0
23/04:00am 25.1 23.7 22.2 84 1.9 SSE 33 37 18 20 1013.4 - 13.0
23/03:30am 25.1 24.2 22.2 84 1.9 SSE 30 35 16 19 1013.4 - 13.0
23/03:00am 24.7 23.0 22.4 87 1.5 SSE 35 39 19 21 1013.6 1013.5 13.0
23/02:30am 23.7 23.2 22.1 91 1.1 SSE 28 33 15 18 1013.8 - 13.0
23/02:00am 22.9 20.6 20.6 87 1.5 SE 33 43 18 23 1014.1 - 11.6
23/01:54am 22.9 19.7 20.2 85 1.7 SE 37 41 20 22 1014.2 - 11.4
23/01:47am 23.2 20.4 20.2 83 1.9 E 35 43 19 23 1014.1 - 11.0
23/01:40am 25.0 22.0 21.3 80 2.4 SE 39 46 21 25 1014.3 - 10.0
23/01:30am 25.2 23.0 21.5 80 2.5 S 35 39 19 21 1014.2 - 10.0
23/01:20am 25.5 23.3 21.4 78 2.7 SSE 35 39 19 21 1014.3 - 10.0
23/01:00am 25.6 22.7 20.8 75 3.2 SE 37 44 20 24 1014.5 - 10.0
23/12:30am 24.9 23.1 21.2 80 2.4 SE 32 39 17 21 1015.1 - 10.0
23/12:00am 25.7 23.2 20.9 75 3.2 SE 35 43 19 23 1015.4 1015.3 10.0
 
Date/Time
EST
Temp
°C
App
Temp
°C
Dew
Point
°C
Rel
Hum
%
Delta-T
°C
Wind Press
QNH
hPa
Press
MSL
hPa
Rain since
9am
mm
Dir  Spd
km/h
Gust
km/h
Spd
kts
Gust
kts
22/11:30pm 25.7 22.3 20.7 74 3.3 SE 39 46 21 25 1015.4 - 10.0
22/11:00pm 25.7 22.4 21.6 78 2.7 SE 41 50 22 27 1015.5 - 10.0
22/10:30pm 25.3 23.2 22.4 84 1.9 SSE 37 44 20 24 1015.4 - 10.0
22/10:00pm 24.5 23.4 22.4 88 1.4 SSE 32 35 17 19 1015.8 - 9.8
22/09:30pm 24.6 22.9 22.5 88 1.4 SSE 35 43 19 23 1016.1 - 9.6
22/09:00pm 23.9 23.2 22.5 92 0.9 SSE 30 35 16 19 1016.1 1016.0 9.6
22/08:30pm 23.4 24.3 22.6 95 0.5 SSE 22 26 12 14 1016.0 - 9.6
22/08:00pm 22.8 21.1 21.4 92 0.9 SE 32 39 17 21 1015.8 - 7.8
22/07:30pm 23.2 22.6 22.0 93 0.8 E 28 35 15 19 1015.3 - 7.4
22/07:00pm 23.9 22.1 22.2 90 1.1 SSE 35 43 19 23 1015.1 - 0.6
22/06:30pm 24.6 20.9 21.5 83 2.1 SE 43 48 23 26 1014.6 - 0.0
22/06:00pm 25.5 22.0 21.8 80 2.5 SSE 43 48 23 26 1014.1 1014.0 0.0
22/05:30pm 26.2 24.2 21.8 77 2.9 SE 35 41 19 22 1013.8 - 0.0
22/05:00pm 26.5 24.3 22.1 77 3.0 SSE 37 41 20 22 1013.6 - 0.0
22/04:30pm 26.7 24.9 22.3 77 3.0 SE 35 41 19 22 1013.2 - 0.0
22/04:00pm 27.4 26.4 22.6 75 3.2 SE 32 37 17 20 1013.2 - 0.0
22/03:30pm 28.0 26.7 21.3 67 4.5 SE 30 35 16 19 1013.3 - 0.0
22/03:00pm 27.8 24.9 20.1 63 5.0 SE 35 43 19 23 1013.2 1013.1 0.0
22/02:30pm 28.3 26.2 22.3 70 4.1 SE 37 43 20 23 1013.1 - 0.0
22/02:00pm 28.5 25.8 21.3 65 4.8 SE 37 44 20 24 1013.4 - 0.0
22/01:30pm 29.0 27.1 22.0 66 4.7 SE 35 44 19 24 1013.6 - 0.0
22/01:00pm 28.8 25.9 20.8 62 5.3 ESE 37 44 20 24 1013.8 - 0.0
22/12:30pm 28.7 27.3 22.2 68 4.4 SE 33 41 18 22 1014.0 - 0.0
22/12:00pm 28.9 26.7 21.4 64 5.0 SE 35 44 19 24 1014.4 1014.3 0.0
22/11:30am 28.1 25.7 20.4 63 5.1 SE 33 41 18 22 1015.0 - 0.0
22/11:00am 26.9 24.9 22.5 77 3.0 SE 37 44 20 24 1015.4 - 0.0
22/10:30am 27.0 24.7 21.3 71 3.8 SE 35 46 19 25 1015.5 - 0.0
22/10:00am 27.5 25.8 21.3 69 4.1 ESE 32 43 17 23 1015.7 - 0.0
22/09:30am 27.5 25.2 21.3 69 4.1 ESE 35 46 19 25 1015.5 - 0.0
22/09:00am 26.9 24.6 21.2 71 3.8 ESE 35 43 19 23 1015.2 1015.1 1.4
22/08:30am 26.7 24.3 21.0 71 3.8 ESE 35 46 19 25 1015.0 - 1.4
22/08:00am 26.4 24.2 20.7 71 3.7 ESE 33 43 18 23 1014.7 - 1.4
22/07:30am 26.0 23.8 21.4 76 3.1 ESE 35 43 19 23 1014.4 - 1.4
22/07:00am 26.2 24.1 21.6 76 3.1 ESE 35 43 19 23 1013.9 - 1.4
22/06:30am 25.9 23.4 20.9 74 3.3 ESE 35 44 19 24 1013.6 - 1.4
22/06:00am 25.6 23.0 20.6 74 3.3 ESE 35 48 19 26 1013.3 1013.2 1.4
22/05:30am 24.8 23.0 21.1 80 2.4 ESE 32 46 17 25 1013.1 - 1.4
22/05:16am 26.2 23.2 21.4 75 3.2 SE 39 57 21 31 1013.2 - 1.0
22/05:00am 26.2 23.8 21.0 73 3.4 SE 35 46 19 25 1012.9 - 1.0
22/04:30am 25.8 23.6 21.5 77 2.9 ESE 35 50 19 27 1012.8 - 1.0
22/04:00am 26.0 23.3 21.2 75 3.2 ESE 37 46 20 25 1012.8 - 1.0
22/03:30am 26.0 23.2 21.7 77 2.9 SE 39 48 21 26 1012.9 - 1.0
22/03:10am 25.9 22.4 21.1 75 3.2 SE 41 61 22 33 1013.0 - 1.0
22/03:00am 26.1 23.2 20.9 73 3.4 SE 37 50 20 27 1013.0 1012.9 1.0
22/02:39am 26.0 23.0 21.4 76 3.1 SE 39 44 21 24 1013.2 - 1.0
22/02:32am 25.9 22.1 21.3 76 3.0 SSE 43 48 23 26 1013.2 - 1.0
22/02:30am 26.2 23.4 21.8 77 2.9 SE 39 48 21 26 1013.2 - 1.0
22/02:03am 25.6 23.0 21.5 78 2.7 SSE 37 56 20 30 1013.4 - 1.0
22/02:00am 25.5 22.8 22.0 81 2.3 SSE 39 56 21 30 1013.4 - 1.0
22/01:30am 26.4 23.5 21.6 75 3.2 SE 39 48 21 26 1013.7 - 1.0
22/01:00am 26.4 23.8 21.4 74 3.3 SE 37 48 20 26 1014.3 - 1.0
22/12:30am 26.4 23.4 21.4 74 3.3 SE 39 50 21 27 1014.6 - 1.0
22/12:00am 26.5 22.9 21.7 75 3.2 SE 43 54 23 29 1014.9 1014.8 1.0
 
Date/Time
EST
Temp
°C
App
Temp
°C
Dew
Point
°C
Rel
Hum
%
Delta-T
°C
Wind Press
QNH
hPa
Press
MSL
hPa
Rain since
9am
mm
Dir  Spd
km/h
Gust
km/h
Spd
kts
Gust
kts
21/11:30pm 26.4 22.9 21.8 76 3.1 SE 43 50 23 27 1014.8 - 1.0
21/11:00pm 26.4 23.4 22.9 81 2.4 SE 43 50 23 27 1015.1 - 1.0
21/10:41pm 25.9 23.4 22.4 81 2.4 SE 39 46 21 25 1015.2 - 1.0
21/10:30pm 25.8 24.9 22.9 84 2.0 SSE 32 35 17 19 1015.3 - 1.0
21/10:00pm 26.0 25.1 22.9 83 2.1 SSE 32 37 17 20 1015.3 - 1.0
21/09:30pm 26.3 23.1 22.4 79 2.6 SE 43 50 23 27 1015.4 - 1.0
21/09:00pm 26.2 24.7 23.5 85 1.8 SE 37 43 20 23 1015.4 1015.3 1.0
21/08:30pm 25.8 24.1 23.1 85 1.8 SSE 37 43 20 23 1015.4 - 1.0
21/08:00pm 26.0 24.3 23.1 84 2.0 SSE 37 41 20 22 1015.1 - 1.0
21/07:30pm 26.0 24.6 22.9 83 2.1 SSE 35 43 19 23 1014.7 - 1.0
21/07:00pm 25.8 24.9 22.9 84 2.0 SSE 32 37 17 20 1014.5 - 0.8
21/06:30pm 25.5 24.1 23.0 86 1.7 SSE 35 41 19 22 1014.3 - 0.6
21/06:00pm 25.8 23.5 22.7 83 2.1 SSE 39 43 21 23 1014.0 1013.9 0.6
21/05:30pm 25.1 22.0 22.0 83 2.1 SSE 41 46 22 25 1013.8 - 0.6
21/05:00pm 25.4 22.1 22.7 85 1.8 SSE 44 50 24 27 1013.6 - 0.6
21/04:30pm 25.8 22.6 22.5 82 2.2 SSE 43 48 23 26 1013.4 - 0.6
21/04:00pm 26.0 22.8 22.5 81 2.4 SSE 43 50 23 27 1013.2 - 0.6
21/03:30pm 26.3 23.0 22.6 80 2.5 SSE 44 50 24 27 1013.4 - 0.6
21/03:00pm 26.5 22.9 22.8 80 2.5 SSE 46 52 25 28 1013.3 1013.2 0.6
21/02:30pm 26.7 23.5 22.5 78 2.8 SSE 43 48 23 26 1013.5 - 0.6
21/02:00pm 26.4 23.8 22.9 81 2.4 SSE 41 46 22 25 1013.9 - 0.6
21/01:30pm 26.8 24.3 22.4 77 3.0 SE 39 48 21 26 1014.1 - 0.6
21/01:00pm 27.4 25.3 23.0 77 3.0 SSE 39 44 21 24 1014.1 - 0.6
21/12:30pm 27.5 24.9 22.9 76 3.1 SE 41 46 22 25 1014.3 - 0.6
21/12:00pm 27.2 25.1 23.0 78 2.9 SE 39 50 21 27 1014.7 1014.6 0.6
21/11:50am 26.2 25.1 22.5 80 2.5 ESE 32 43 17 23 1014.8 - 0.6
21/11:33am 26.6 24.1 22.4 78 2.8 E 39 46 21 25 1015.1 - 0.6
21/11:30am 26.8 23.8 22.2 76 3.1 ESE 41 52 22 28 1015.1 - 0.6
21/11:00am 27.0 25.4 23.3 80 2.5 SE 37 46 20 25 1015.5 - 0.6
21/10:30am 25.9 24.9 23.6 87 1.6 ESE 35 44 19 24 1015.6 - 0.6
21/10:00am 24.9 22.4 23.0 89 1.3 ESE 41 56 22 30 1016.0 - 0.6
21/09:37am 25.5 23.3 22.8 85 1.8 E 39 48 21 26 1015.8 - 0.0
21/09:30am 25.8 23.6 22.9 84 2.0 ESE 39 50 21 27 1015.7 - 0.0

Other Formats:

Comma delimited format used in spreadsheet applications
http://www.bom.gov.au/fwo/IDQ60801/IDQ60801.94285.axf

JavaScript Object Notation format (JSON) in row-major order
http://www.bom.gov.au/fwo/IDQ60801/IDQ60801.94285.json